sensor_id;sensor_type;location;lat;lon;timestamp;temperature;humidity
1405;DHT22;697;51.114;6.542;2023-03-14T00:01:49;13.30;96.40
1405;DHT22;697;51.114;6.542;2023-03-14T00:04:16;13.40;96.50
1405;DHT22;697;51.114;6.542;2023-03-14T00:06:43;13.40;95.90
1405;DHT22;697;51.114;6.542;2023-03-14T00:09:09;13.40;96.00
1405;DHT22;697;51.114;6.542;2023-03-14T00:11:36;13.40;96.00
1405;DHT22;697;51.114;6.542;2023-03-14T00:14:03;13.30;95.90
1405;DHT22;697;51.114;6.542;2023-03-14T00:16:31;13.30;96.10
1405;DHT22;697;51.114;6.542;2023-03-14T00:18:58;13.30;96.00
1405;DHT22;697;51.114;6.542;2023-03-14T00:21:25;13.20;97.50
1405;DHT22;697;51.114;6.542;2023-03-14T00:23:52;13.20;98.60
1405;DHT22;697;51.114;6.542;2023-03-14T00:26:21;13.00;99.20
1405;DHT22;697;51.114;6.542;2023-03-14T00:28:51;12.80;99.90
1405;DHT22;697;51.114;6.542;2023-03-14T00:31:18;12.50;99.90
1405;DHT22;697;51.114;6.542;2023-03-14T00:33:46;12.20;99.90
1405;DHT22;697;51.114;6.542;2023-03-14T00:36:14;12.00;99.90
1405;DHT22;697;51.114;6.542;2023-03-14T00:38:43;11.90;99.90
1405;DHT22;697;51.114;6.542;2023-03-14T00:41:12;11.70;99.90
1405;DHT22;697;51.114;6.542;2023-03-14T00:43:39;11.50;99.90
1405;DHT22;697;51.114;6.542;2023-03-14T00:46:06;11.30;99.90
1405;DHT22;697;51.114;6.542;2023-03-14T00:48:34;11.30;99.90
1405;DHT22;697;51.114;6.542;2023-03-14T00:51:02;11.20;99.90
1405;DHT22;697;51.114;6.542;2023-03-14T00:53:30;11.20;99.90
1405;DHT22;697;51.114;6.542;2023-03-14T00:55:56;11.20;99.90
1405;DHT22;697;51.114;6.542;2023-03-14T00:58:23;11.20;99.90
1405;DHT22;697;51.114;6.542;2023-03-14T01:00:50;11.30;99.90
1405;DHT22;697;51.114;6.542;2023-03-14T01:03:17;11.30;99.90
1405;DHT22;697;51.114;6.542;2023-03-14T01:05:43;11.30;99.90
1405;DHT22;697;51.114;6.542;2023-03-14T01:08:11;11.40;99.90
1405;DHT22;697;51.114;6.542;2023-03-14T01:10:38;11.40;99.90
1405;DHT22;697;51.114;6.542;2023-03-14T01:13:05;11.50;99.90
1405;DHT22;697;51.114;6.542;2023-03-14T01:15:32;11.50;99.90
1405;DHT22;697;51.114;6.542;2023-03-14T01:17:59;11.50;99.90
1405;DHT22;697;51.114;6.542;2023-03-14T01:20:26;11.50;99.90
1405;DHT22;697;51.114;6.542;2023-03-14T01:22:52;11.60;99.90
1405;DHT22;697;51.114;6.542;2023-03-14T01:25:20;11.60;99.90
1405;DHT22;697;51.114;6.542;2023-03-14T01:27:47;11.60;99.90
1405;DHT22;697;51.114;6.542;2023-03-14T01:30:14;11.60;99.90
1405;DHT22;697;51.114;6.542;2023-03-14T01:32:41;11.70;99.90
1405;DHT22;697;51.114;6.542;2023-03-14T01:35:08;11.70;99.90
1405;DHT22;697;51.114;6.542;2023-03-14T01:37:35;11.70;99.90
1405;DHT22;697;51.114;6.542;2023-03-14T01:40:01;11.70;99.90
1405;DHT22;697;51.114;6.542;2023-03-14T01:42:32;11.80;99.90
1405;DHT22;697;51.114;6.542;2023-03-14T01:45:00;11.80;99.90
1405;DHT22;697;51.114;6.542;2023-03-14T01:47:27;11.80;99.90
1405;DHT22;697;51.114;6.542;2023-03-14T01:49:58;11.80;99.90
1405;DHT22;697;51.114;6.542;2023-03-14T01:52:29;11.80;99.90
1405;DHT22;697;51.114;6.542;2023-03-14T01:55:02;11.80;99.90
1405;DHT22;697;51.114;6.542;2023-03-14T01:57:34;11.70;99.90
1405;DHT22;697;51.114;6.542;2023-03-14T02:00:05;11.70;99.90
1405;DHT22;697;51.114;6.542;2023-03-14T02:02:37;11.70;99.90
1405;DHT22;697;51.114;6.542;2023-03-14T02:05:04;11.70;99.90
1405;DHT22;697;51.114;6.542;2023-03-14T02:07:35;11.80;99.90
1405;DHT22;697;51.114;6.542;2023-03-14T02:10:03;11.80;99.90
1405;DHT22;697;51.114;6.542;2023-03-14T02:12:33;11.80;99.90
1405;DHT22;697;51.114;6.542;2023-03-14T02:15:00;11.80;99.90
1405;DHT22;697;51.114;6.542;2023-03-14T02:17:27;11.80;99.90
1405;DHT22;697;51.114;6.542;2023-03-14T02:20:03;11.80;99.90
1405;DHT22;697;51.114;6.542;2023-03-14T02:22:33;11.80;99.90
1405;DHT22;697;51.114;6.542;2023-03-14T02:25:06;11.80;99.90
1405;DHT22;697;51.114;6.542;2023-03-14T02:27:36;11.80;99.90
1405;DHT22;697;51.114;6.542;2023-03-14T02:30:05;11.90;99.90
1405;DHT22;697;51.114;6.542;2023-03-14T02:32:34;11.90;99.90
1405;DHT22;697;51.114;6.542;2023-03-14T02:35:05;11.90;99.90
1405;DHT22;697;51.114;6.542;2023-03-14T02:37:36;11.90;99.90
1405;DHT22;697;51.114;6.542;2023-03-14T02:40:04;11.90;99.90
1405;DHT22;697;51.114;6.542;2023-03-14T02:42:32;11.90;99.90
1405;DHT22;697;51.114;6.542;2023-03-14T02:45:35;11.90;99.90
1405;DHT22;697;51.114;6.542;2023-03-14T02:48:05;11.90;99.90
1405;DHT22;697;51.114;6.542;2023-03-14T02:50:34;11.90;99.90
1405;DHT22;697;51.114;6.542;2023-03-14T02:53:01;11.90;99.90
1405;DHT22;697;51.114;6.542;2023-03-14T02:55:28;11.90;99.90
1405;DHT22;697;51.114;6.542;2023-03-14T02:57:55;11.90;99.90
1405;DHT22;697;51.114;6.542;2023-03-14T03:00:23;11.90;99.90
1405;DHT22;697;51.114;6.542;2023-03-14T03:02:50;11.90;99.90
1405;DHT22;697;51.114;6.542;2023-03-14T03:05:17;11.90;99.90
1405;DHT22;697;51.114;6.542;2023-03-14T03:07:44;11.90;99.90
1405;DHT22;697;51.114;6.542;2023-03-14T03:10:11;11.90;99.90
1405;DHT22;697;51.114;6.542;2023-03-14T03:12:38;11.90;99.90
1405;DHT22;697;51.114;6.542;2023-03-14T03:15:05;11.80;99.90
1405;DHT22;697;51.114;6.542;2023-03-14T03:17:33;11.80;99.90
1405;DHT22;697;51.114;6.542;2023-03-14T03:20:00;11.80;99.90
1405;DHT22;697;51.114;6.542;2023-03-14T03:22:29;11.70;99.90
1405;DHT22;697;51.114;6.542;2023-03-14T03:24:56;11.60;99.90
1405;DHT22;697;51.114;6.542;2023-03-14T03:27:22;11.50;99.90
1405;DHT22;697;51.114;6.542;2023-03-14T03:29:49;11.40;99.90
1405;DHT22;697;51.114;6.542;2023-03-14T03:32:16;11.40;99.90
1405;DHT22;697;51.114;6.542;2023-03-14T03:34:44;11.40;99.90
1405;DHT22;697;51.114;6.542;2023-03-14T03:37:10;11.40;99.90
1405;DHT22;697;51.114;6.542;2023-03-14T03:39:37;11.40;99.90
1405;DHT22;697;51.114;6.542;2023-03-14T03:42:04;11.50;99.90
1405;DHT22;697;51.114;6.542;2023-03-14T03:44:30;11.50;99.90
1405;DHT22;697;51.114;6.542;2023-03-14T03:46:57;11.50;99.90
1405;DHT22;697;51.114;6.542;2023-03-14T03:49:24;11.60;99.90
1405;DHT22;697;51.114;6.542;2023-03-14T03:51:55;11.60;99.90
1405;DHT22;697;51.114;6.542;2023-03-14T03:54:22;11.60;99.90
1405;DHT22;697;51.114;6.542;2023-03-14T03:56:49;11.70;99.90
1405;DHT22;697;51.114;6.542;2023-03-14T03:59:15;11.70;99.90
1405;DHT22;697;51.114;6.542;2023-03-14T04:01:42;11.70;99.90
1405;DHT22;697;51.114;6.542;2023-03-14T04:04:09;11.80;99.90
1405;DHT22;697;51.114;6.542;2023-03-14T04:06:37;11.80;99.90
1405;DHT22;697;51.114;6.542;2023-03-14T04:09:05;11.70;99.90
1405;DHT22;697;51.114;6.542;2023-03-14T04:11:31;11.80;99.90
1405;DHT22;697;51.114;6.542;2023-03-14T04:13:58;11.70;99.90
1405;DHT22;697;51.114;6.542;2023-03-14T04:16:25;11.60;99.90
1405;DHT22;697;51.114;6.542;2023-03-14T04:18:52;11.60;99.90
1405;DHT22;697;51.114;6.542;2023-03-14T04:21:19;11.60;99.90
1405;DHT22;697;51.114;6.542;2023-03-14T04:23:46;11.60;99.90
1405;DHT22;697;51.114;6.542;2023-03-14T04:26:14;11.50;99.90
1405;DHT22;697;51.114;6.542;2023-03-14T04:28:41;11.50;99.90
1405;DHT22;697;51.114;6.542;2023-03-14T04:31:08;11.60;99.90
1405;DHT22;697;51.114;6.542;2023-03-14T04:33:35;11.60;99.90
1405;DHT22;697;51.114;6.542;2023-03-14T04:36:03;11.50;99.90
1405;DHT22;697;51.114;6.542;2023-03-14T04:38:31;11.60;99.90
1405;DHT22;697;51.114;6.542;2023-03-14T04:40:58;11.60;99.90
1405;DHT22;697;51.114;6.542;2023-03-14T04:43:27;11.50;99.90
1405;DHT22;697;51.114;6.542;2023-03-14T04:45:54;11.50;99.90
1405;DHT22;697;51.114;6.542;2023-03-14T04:48:21;11.50;99.90
1405;DHT22;697;51.114;6.542;2023-03-14T04:50:48;11.50;99.90
1405;DHT22;697;51.114;6.542;2023-03-14T04:53:16;11.50;99.90
1405;DHT22;697;51.114;6.542;2023-03-14T04:55:47;11.60;99.90
1405;DHT22;697;51.114;6.542;2023-03-14T04:58:14;11.50;99.90
1405;DHT22;697;51.114;6.542;2023-03-14T05:00:42;11.50;99.90
1405;DHT22;697;51.114;6.542;2023-03-14T05:03:09;11.50;99.90
1405;DHT22;697;51.114;6.542;2023-03-14T05:05:36;11.50;99.90
1405;DHT22;697;51.114;6.542;2023-03-14T05:08:03;11.50;99.90
1405;DHT22;697;51.114;6.542;2023-03-14T05:10:30;11.40;99.90
1405;DHT22;697;51.114;6.542;2023-03-14T05:12:56;11.40;99.90
1405;DHT22;697;51.114;6.542;2023-03-14T05:15:23;11.40;99.90
1405;DHT22;697;51.114;6.542;2023-03-14T05:17:52;11.40;99.90
1405;DHT22;697;51.114;6.542;2023-03-14T05:20:19;11.50;99.90
1405;DHT22;697;51.114;6.542;2023-03-14T05:22:46;11.50;99.90
1405;DHT22;697;51.114;6.542;2023-03-14T05:25:13;11.50;99.90
1405;DHT22;697;51.114;6.542;2023-03-14T05:27:40;11.50;99.90
1405;DHT22;697;51.114;6.542;2023-03-14T05:30:08;11.50;99.90
1405;DHT22;697;51.114;6.542;2023-03-14T05:32:35;11.50;99.90
1405;DHT22;697;51.114;6.542;2023-03-14T05:35:03;11.50;99.90
1405;DHT22;697;51.114;6.542;2023-03-14T05:37:30;11.50;99.90
1405;DHT22;697;51.114;6.542;2023-03-14T05:39:57;11.40;99.90
1405;DHT22;697;51.114;6.542;2023-03-14T05:42:23;11.40;99.90
1405;DHT22;697;51.114;6.542;2023-03-14T05:44:50;11.40;99.90
1405;DHT22;697;51.114;6.542;2023-03-14T05:47:17;11.40;99.90
1405;DHT22;697;51.114;6.542;2023-03-14T05:49:43;11.30;99.90
1405;DHT22;697;51.114;6.542;2023-03-14T05:52:11;11.30;99.90
1405;DHT22;697;51.114;6.542;2023-03-14T05:54:38;11.20;99.90
1405;DHT22;697;51.114;6.542;2023-03-14T05:57:05;11.20;99.90
1405;DHT22;697;51.114;6.542;2023-03-14T05:59:32;11.20;99.90
1405;DHT22;697;51.114;6.542;2023-03-14T06:01:59;11.30;99.90
1405;DHT22;697;51.114;6.542;2023-03-14T06:04:26;11.30;99.90
1405;DHT22;697;51.114;6.542;2023-03-14T06:06:52;11.30;99.90
1405;DHT22;697;51.114;6.542;2023-03-14T06:09:20;11.30;99.90
1405;DHT22;697;51.114;6.542;2023-03-14T06:11:48;11.40;99.90
1405;DHT22;697;51.114;6.542;2023-03-14T06:14:15;11.40;99.90
1405;DHT22;697;51.114;6.542;2023-03-14T06:16:42;11.40;99.90
1405;DHT22;697;51.114;6.542;2023-03-14T06:19:08;11.30;99.90
1405;DHT22;697;51.114;6.542;2023-03-14T06:21:35;11.30;99.90
1405;DHT22;697;51.114;6.542;2023-03-14T06:24:02;11.30;99.90
1405;DHT22;697;51.114;6.542;2023-03-14T06:26:31;11.40;99.90
1405;DHT22;697;51.114;6.542;2023-03-14T06:28:58;11.40;99.90
1405;DHT22;697;51.114;6.542;2023-03-14T06:31:28;11.40;99.90
1405;DHT22;697;51.114;6.542;2023-03-14T06:33:55;11.40;99.90
1405;DHT22;697;51.114;6.542;2023-03-14T06:36:22;11.50;99.90
1405;DHT22;697;51.114;6.542;2023-03-14T06:38:49;11.50;99.90
1405;DHT22;697;51.114;6.542;2023-03-14T06:41:16;11.60;99.90
1405;DHT22;697;51.114;6.542;2023-03-14T06:43:44;11.60;99.90
1405;DHT22;697;51.114;6.542;2023-03-14T06:46:11;11.60;99.90
1405;DHT22;697;51.114;6.542;2023-03-14T06:48:37;11.60;99.90
1405;DHT22;697;51.114;6.542;2023-03-14T06:51:04;11.60;99.90
1405;DHT22;697;51.114;6.542;2023-03-14T06:53:31;11.60;99.90
1405;DHT22;697;51.114;6.542;2023-03-14T06:55:58;11.60;99.90
1405;DHT22;697;51.114;6.542;2023-03-14T06:58:25;11.60;99.90
1405;DHT22;697;51.114;6.542;2023-03-14T07:00:53;11.60;99.90
1405;DHT22;697;51.114;6.542;2023-03-14T07:03:22;11.60;99.90
1405;DHT22;697;51.114;6.542;2023-03-14T07:05:49;11.60;99.90
1405;DHT22;697;51.114;6.542;2023-03-14T07:08:16;11.60;99.90
1405;DHT22;697;51.114;6.542;2023-03-14T07:10:43;11.60;99.90
1405;DHT22;697;51.114;6.542;2023-03-14T07:13:09;11.60;99.90
1405;DHT22;697;51.114;6.542;2023-03-14T07:15:36;11.60;99.90
1405;DHT22;697;51.114;6.542;2023-03-14T07:18:04;11.70;99.90
1405;DHT22;697;51.114;6.542;2023-03-14T07:20:31;11.70;99.90
1405;DHT22;697;51.114;6.542;2023-03-14T07:22:57;11.80;99.90
1405;DHT22;697;51.114;6.542;2023-03-14T07:25:25;11.80;99.90
1405;DHT22;697;51.114;6.542;2023-03-14T07:27:52;11.80;99.90
1405;DHT22;697;51.114;6.542;2023-03-14T07:30:19;11.70;99.90
1405;DHT22;697;51.114;6.542;2023-03-14T07:32:45;11.70;99.90
1405;DHT22;697;51.114;6.542;2023-03-14T07:35:13;11.60;99.90
1405;DHT22;697;51.114;6.542;2023-03-14T07:37:40;11.60;99.90
1405;DHT22;697;51.114;6.542;2023-03-14T07:40:08;11.60;99.90
1405;DHT22;697;51.114;6.542;2023-03-14T07:42:36;11.60;99.90
1405;DHT22;697;51.114;6.542;2023-03-14T07:45:03;11.70;99.90
1405;DHT22;697;51.114;6.542;2023-03-14T07:47:30;11.70;99.90
1405;DHT22;697;51.114;6.542;2023-03-14T07:49:56;11.80;99.90
1405;DHT22;697;51.114;6.542;2023-03-14T07:52:24;11.80;99.90
1405;DHT22;697;51.114;6.542;2023-03-14T07:54:51;12.00;99.90
1405;DHT22;697;51.114;6.542;2023-03-14T07:57:18;12.10;99.90
1405;DHT22;697;51.114;6.542;2023-03-14T07:59:44;12.20;99.90
1405;DHT22;697;51.114;6.542;2023-03-14T08:02:12;12.20;99.90
1405;DHT22;697;51.114;6.542;2023-03-14T08:04:39;12.20;99.90
1405;DHT22;697;51.114;6.542;2023-03-14T08:07:06;12.30;99.90
1405;DHT22;697;51.114;6.542;2023-03-14T08:09:34;12.30;99.90
1405;DHT22;697;51.114;6.542;2023-03-14T08:12:01;12.40;99.90
1405;DHT22;697;51.114;6.542;2023-03-14T08:14:28;12.40;99.90
1405;DHT22;697;51.114;6.542;2023-03-14T08:16:56;12.50;99.90
1405;DHT22;697;51.114;6.542;2023-03-14T08:19:23;12.50;99.90
1405;DHT22;697;51.114;6.542;2023-03-14T08:21:50;12.60;99.90
1405;DHT22;697;51.114;6.542;2023-03-14T08:24:16;12.60;99.90
1405;DHT22;697;51.114;6.542;2023-03-14T08:26:44;12.60;99.90
1405;DHT22;697;51.114;6.542;2023-03-14T08:29:11;12.50;99.90
1405;DHT22;697;51.114;6.542;2023-03-14T08:31:38;12.60;99.90
1405;DHT22;697;51.114;6.542;2023-03-14T08:34:05;12.40;99.90
1405;DHT22;697;51.114;6.542;2023-03-14T08:36:32;12.40;99.90
1405;DHT22;697;51.114;6.542;2023-03-14T08:38:59;12.40;99.90
1405;DHT22;697;51.114;6.542;2023-03-14T08:41:25;12.40;99.90
1405;DHT22;697;51.114;6.542;2023-03-14T08:43:53;12.20;99.90
1405;DHT22;697;51.114;6.542;2023-03-14T08:46:20;12.10;99.90
1405;DHT22;697;51.114;6.542;2023-03-14T08:48:47;11.90;99.90
1405;DHT22;697;51.114;6.542;2023-03-14T08:51:14;11.80;99.90
1405;DHT22;697;51.114;6.542;2023-03-14T08:53:41;11.80;99.90
1405;DHT22;697;51.114;6.542;2023-03-14T08:56:08;11.80;99.90
1405;DHT22;697;51.114;6.542;2023-03-14T08:58:35;11.80;99.90
1405;DHT22;697;51.114;6.542;2023-03-14T09:01:05;11.80;99.90
1405;DHT22;697;51.114;6.542;2023-03-14T09:03:32;11.70;99.90
1405;DHT22;697;51.114;6.542;2023-03-14T09:06:02;11.80;99.90
1405;DHT22;697;51.114;6.542;2023-03-14T09:08:30;11.60;99.90
1405;DHT22;697;51.114;6.542;2023-03-14T09:10:57;11.20;99.90
1405;DHT22;697;51.114;6.542;2023-03-14T09:13:24;10.90;99.90
1405;DHT22;697;51.114;6.542;2023-03-14T09:15:51;10.70;99.90
1405;DHT22;697;51.114;6.542;2023-03-14T09:18:19;10.50;99.90
1405;DHT22;697;51.114;6.542;2023-03-14T09:20:46;10.20;99.90
1405;DHT22;697;51.114;6.542;2023-03-14T09:23:13;10.00;99.90
1405;DHT22;697;51.114;6.542;2023-03-14T09:25:39;9.80;99.90
1405;DHT22;697;51.114;6.542;2023-03-14T09:28:06;9.80;99.90
1405;DHT22;697;51.114;6.542;2023-03-14T09:30:33;9.70;99.90
1405;DHT22;697;51.114;6.542;2023-03-14T09:33:00;9.70;99.90
1405;DHT22;697;51.114;6.542;2023-03-14T09:35:28;9.70;99.90
1405;DHT22;697;51.114;6.542;2023-03-14T09:37:54;9.80;99.90
1405;DHT22;697;51.114;6.542;2023-03-14T09:40:21;9.80;99.90
1405;DHT22;697;51.114;6.542;2023-03-14T09:42:51;9.90;99.90
1405;DHT22;697;51.114;6.542;2023-03-14T09:45:24;10.00;99.90
1405;DHT22;697;51.114;6.542;2023-03-14T09:47:52;10.00;99.90
1405;DHT22;697;51.114;6.542;2023-03-14T09:50:19;10.00;99.90
1405;DHT22;697;51.114;6.542;2023-03-14T09:52:49;10.00;99.90
1405;DHT22;697;51.114;6.542;2023-03-14T09:55:19;9.90;99.90
1405;DHT22;697;51.114;6.542;2023-03-14T09:57:49;9.80;99.90
1405;DHT22;697;51.114;6.542;2023-03-14T10:00:18;9.70;99.90
1405;DHT22;697;51.114;6.542;2023-03-14T10:02:51;9.60;99.90
1405;DHT22;697;51.114;6.542;2023-03-14T10:05:21;9.60;99.90
1405;DHT22;697;51.114;6.542;2023-03-14T10:07:49;9.50;99.90
1405;DHT22;697;51.114;6.542;2023-03-14T10:10:18;9.40;99.90
1405;DHT22;697;51.114;6.542;2023-03-14T10:12:47;9.40;99.90
1405;DHT22;697;51.114;6.542;2023-03-14T10:15:27;9.30;99.90
1405;DHT22;697;51.114;6.542;2023-03-14T10:17:58;9.20;99.90
1405;DHT22;697;51.114;6.542;2023-03-14T10:20:31;9.10;99.90
1405;DHT22;697;51.114;6.542;2023-03-14T10:23:04;9.10;99.90
1405;DHT22;697;51.114;6.542;2023-03-14T10:25:32;9.10;99.90
1405;DHT22;697;51.114;6.542;2023-03-14T10:27:59;9.20;99.90
1405;DHT22;697;51.114;6.542;2023-03-14T10:30:34;9.30;99.90
1405;DHT22;697;51.114;6.542;2023-03-14T10:33:10;9.40;99.90
1405;DHT22;697;51.114;6.542;2023-03-14T10:35:39;9.50;99.90
1405;DHT22;697;51.114;6.542;2023-03-14T10:38:12;9.60;99.90
1405;DHT22;697;51.114;6.542;2023-03-14T10:40:42;9.60;99.90
1405;DHT22;697;51.114;6.542;2023-03-14T10:43:16;9.70;99.90
1405;DHT22;697;51.114;6.542;2023-03-14T10:45:44;9.80;99.90
1405;DHT22;697;51.114;6.542;2023-03-14T10:48:20;9.80;99.90
1405;DHT22;697;51.114;6.542;2023-03-14T10:50:49;9.70;99.90
1405;DHT22;697;51.114;6.542;2023-03-14T10:53:18;9.70;99.90
1405;DHT22;697;51.114;6.542;2023-03-14T10:55:45;9.80;99.90
1405;DHT22;697;51.114;6.542;2023-03-14T10:58:23;9.80;99.90
1405;DHT22;697;51.114;6.542;2023-03-14T11:00:58;10.00;99.90
1405;DHT22;697;51.114;6.542;2023-03-14T11:03:28;10.10;99.90
1405;DHT22;697;51.114;6.542;2023-03-14T11:05:57;10.10;99.90
1405;DHT22;697;51.114;6.542;2023-03-14T11:08:31;10.10;99.90
1405;DHT22;697;51.114;6.542;2023-03-14T11:11:11;10.00;99.90
1405;DHT22;697;51.114;6.542;2023-03-14T11:13:44;9.90;99.90
1405;DHT22;697;51.114;6.542;2023-03-14T11:16:21;9.90;99.90
1405;DHT22;697;51.114;6.542;2023-03-14T11:18:57;9.80;99.90
1405;DHT22;697;51.114;6.542;2023-03-14T11:21:29;9.70;99.90
1405;DHT22;697;51.114;6.542;2023-03-14T11:24:15;9.60;99.90
1405;DHT22;697;51.114;6.542;2023-03-14T11:26:50;9.60;99.90
1405;DHT22;697;51.114;6.542;2023-03-14T11:29:22;9.70;99.90
1405;DHT22;697;51.114;6.542;2023-03-14T11:31:55;9.80;99.90
1405;DHT22;697;51.114;6.542;2023-03-14T11:34:27;9.80;99.90
1405;DHT22;697;51.114;6.542;2023-03-14T11:36:59;9.80;99.90
1405;DHT22;697;51.114;6.542;2023-03-14T11:39:36;9.90;99.90
1405;DHT22;697;51.114;6.542;2023-03-14T11:42:04;10.10;99.90
1405;DHT22;697;51.114;6.542;2023-03-14T11:44:34;10.30;99.90
1405;DHT22;697;51.114;6.542;2023-03-14T11:47:05;10.50;99.90
1405;DHT22;697;51.114;6.542;2023-03-14T11:49:36;10.70;99.90
1405;DHT22;697;51.114;6.542;2023-03-14T11:52:09;10.70;99.90
1405;DHT22;697;51.114;6.542;2023-03-14T11:54:44;10.80;99.90
1405;DHT22;697;51.114;6.542;2023-03-14T11:57:15;10.60;99.90
1405;DHT22;697;51.114;6.542;2023-03-14T11:59:50;10.60;99.90
1405;DHT22;697;51.114;6.542;2023-03-14T12:02:22;10.60;99.90
1405;DHT22;697;51.114;6.542;2023-03-14T12:05:12;10.80;99.90
1405;DHT22;697;51.114;6.542;2023-03-14T12:07:58;10.90;99.30
1405;DHT22;697;51.114;6.542;2023-03-14T12:10:37;11.00;99.00
1405;DHT22;697;51.114;6.542;2023-03-14T12:13:04;10.80;98.60
1405;DHT22;697;51.114;6.542;2023-03-14T12:15:38;10.60;98.80
1405;DHT22;697;51.114;6.542;2023-03-14T12:18:18;10.50;98.10
1405;DHT22;697;51.114;6.542;2023-03-14T12:20:51;10.40;98.30
1405;DHT22;697;51.114;6.542;2023-03-14T12:23:19;10.30;98.80
1405;DHT22;697;51.114;6.542;2023-03-14T12:25:48;10.20;98.30
1405;DHT22;697;51.114;6.542;2023-03-14T12:28:32;10.20;98.60
1405;DHT22;697;51.114;6.542;2023-03-14T12:31:36;10.30;97.80
1405;DHT22;697;51.114;6.542;2023-03-14T12:34:03;10.50;98.30
1405;DHT22;697;51.114;6.542;2023-03-14T12:36:54;11.00;98.70
1405;DHT22;697;51.114;6.542;2023-03-14T12:39:33;12.00;96.00
1405;DHT22;697;51.114;6.542;2023-03-14T12:42:04;12.50;92.80
1405;DHT22;697;51.114;6.542;2023-03-14T12:44:43;12.60;93.10
1405;DHT22;697;51.114;6.542;2023-03-14T12:50:21;12.30;93.40
1405;DHT22;697;51.114;6.542;2023-03-14T12:55:54;12.80;91.20
1405;DHT22;697;51.114;6.542;2023-03-14T12:58:28;13.40;87.30
1405;DHT22;697;51.114;6.542;2023-03-14T13:01:00;13.90;88.60
1405;DHT22;697;51.114;6.542;2023-03-14T13:03:37;15.10;86.30
1405;DHT22;697;51.114;6.542;2023-03-14T13:06:08;15.70;78.30
1405;DHT22;697;51.114;6.542;2023-03-14T13:08:38;15.80;77.60
1405;DHT22;697;51.114;6.542;2023-03-14T13:11:09;15.40;75.60
1405;DHT22;697;51.114;6.542;2023-03-14T13:13:42;14.90;75.60
1405;DHT22;697;51.114;6.542;2023-03-14T13:16:15;14.50;77.40
1405;DHT22;697;51.114;6.542;2023-03-14T13:18:44;13.60;78.20
1405;DHT22;697;51.114;6.542;2023-03-14T13:21:13;13.10;82.30
1405;DHT22;697;51.114;6.542;2023-03-14T13:23:55;12.60;85.60
1405;DHT22;697;51.114;6.542;2023-03-14T13:26:24;12.20;85.90
1405;DHT22;697;51.114;6.542;2023-03-14T13:28:53;11.90;89.10
1405;DHT22;697;51.114;6.542;2023-03-14T13:31:22;11.80;90.20
1405;DHT22;697;51.114;6.542;2023-03-14T13:34:00;11.70;90.30
1405;DHT22;697;51.114;6.542;2023-03-14T13:36:27;11.70;90.90
1405;DHT22;697;51.114;6.542;2023-03-14T13:38:58;11.80;91.40
1405;DHT22;697;51.114;6.542;2023-03-14T13:41:25;11.70;90.10
1405;DHT22;697;51.114;6.542;2023-03-14T13:44:00;11.50;89.70
1405;DHT22;697;51.114;6.542;2023-03-14T13:46:28;11.50;91.00
1405;DHT22;697;51.114;6.542;2023-03-14T13:48:58;11.70;91.80
1405;DHT22;697;51.114;6.542;2023-03-14T13:51:27;12.10;91.00
1405;DHT22;697;51.114;6.542;2023-03-14T13:53:57;12.10;88.70
1405;DHT22;697;51.114;6.542;2023-03-14T13:56:26;12.00;85.40
1405;DHT22;697;51.114;6.542;2023-03-14T13:58:53;11.80;85.00
1405;DHT22;697;51.114;6.542;2023-03-14T14:01:23;11.80;87.60
1405;DHT22;697;51.114;6.542;2023-03-14T14:03:53;11.70;87.30
1405;DHT22;697;51.114;6.542;2023-03-14T14:06:28;11.80;89.70
1405;DHT22;697;51.114;6.542;2023-03-14T14:08:56;11.90;86.90
1405;DHT22;697;51.114;6.542;2023-03-14T14:11:41;11.90;87.40
1405;DHT22;697;51.114;6.542;2023-03-14T14:14:12;11.90;85.60
1405;DHT22;697;51.114;6.542;2023-03-14T14:16:43;11.70;84.20
1405;DHT22;697;51.114;6.542;2023-03-14T14:19:11;11.70;85.90
1405;DHT22;697;51.114;6.542;2023-03-14T14:21:38;11.80;85.30
1405;DHT22;697;51.114;6.542;2023-03-14T14:24:07;11.90;84.80
1405;DHT22;697;51.114;6.542;2023-03-14T14:26:34;11.90;85.90
1405;DHT22;697;51.114;6.542;2023-03-14T14:29:03;11.90;84.20
1405;DHT22;697;51.114;6.542;2023-03-14T14:31:29;12.00;83.40
1405;DHT22;697;51.114;6.542;2023-03-14T14:33:59;11.80;83.10
1405;DHT22;697;51.114;6.542;2023-03-14T14:36:29;11.80;83.90
1405;DHT22;697;51.114;6.542;2023-03-14T14:38:59;11.70;86.00
1405;DHT22;697;51.114;6.542;2023-03-14T14:41:28;11.70;85.20
1405;DHT22;697;51.114;6.542;2023-03-14T14:43:57;11.80;84.70
1405;DHT22;697;51.114;6.542;2023-03-14T14:46:27;11.80;84.70
1405;DHT22;697;51.114;6.542;2023-03-14T14:48:56;11.80;86.10
1405;DHT22;697;51.114;6.542;2023-03-14T14:51:30;12.00;85.30
1405;DHT22;697;51.114;6.542;2023-03-14T14:54:19;12.00;82.90
1405;DHT22;697;51.114;6.542;2023-03-14T14:56:48;11.80;83.10
1405;DHT22;697;51.114;6.542;2023-03-14T14:59:24;11.40;79.40
1405;DHT22;697;51.114;6.542;2023-03-14T15:01:55;11.10;76.30
1405;DHT22;697;51.114;6.542;2023-03-14T15:04:22;11.00;74.30
1405;DHT22;697;51.114;6.542;2023-03-14T15:06:50;11.00;70.50
1405;DHT22;697;51.114;6.542;2023-03-14T15:09:18;11.10;67.30
1405;DHT22;697;51.114;6.542;2023-03-14T15:11:46;11.20;68.00
1405;DHT22;697;51.114;6.542;2023-03-14T15:14:13;11.20;65.50
1405;DHT22;697;51.114;6.542;2023-03-14T15:16:40;11.30;63.50
1405;DHT22;697;51.114;6.542;2023-03-14T15:19:12;11.40;63.50
1405;DHT22;697;51.114;6.542;2023-03-14T15:21:38;11.50;64.80
1405;DHT22;697;51.114;6.542;2023-03-14T15:24:08;11.50;62.30
1405;DHT22;697;51.114;6.542;2023-03-14T15:26:36;11.40;60.00
1405;DHT22;697;51.114;6.542;2023-03-14T15:29:03;11.40;57.70
1405;DHT22;697;51.114;6.542;2023-03-14T15:31:31;11.40;58.00
1405;DHT22;697;51.114;6.542;2023-03-14T15:33:58;11.30;57.60
1405;DHT22;697;51.114;6.542;2023-03-14T15:36:27;11.10;57.50
1405;DHT22;697;51.114;6.542;2023-03-14T15:38:54;11.10;56.30
1405;DHT22;697;51.114;6.542;2023-03-14T15:41:23;11.10;56.20
1405;DHT22;697;51.114;6.542;2023-03-14T15:43:50;11.20;55.80
1405;DHT22;697;51.114;6.542;2023-03-14T15:46:17;11.20;56.60
1405;DHT22;697;51.114;6.542;2023-03-14T15:48:44;11.20;55.40
1405;DHT22;697;51.114;6.542;2023-03-14T15:51:11;11.20;57.70
1405;DHT22;697;51.114;6.542;2023-03-14T15:53:38;11.10;56.30
1405;DHT22;697;51.114;6.542;2023-03-14T15:56:05;11.10;55.80
1405;DHT22;697;51.114;6.542;2023-03-14T15:58:34;11.00;54.20
1405;DHT22;697;51.114;6.542;2023-03-14T16:01:01;11.00;55.40
1405;DHT22;697;51.114;6.542;2023-03-14T16:03:28;10.90;56.70
1405;DHT22;697;51.114;6.542;2023-03-14T16:05:55;10.70;56.00
1405;DHT22;697;51.114;6.542;2023-03-14T16:08:23;10.60;55.90
1405;DHT22;697;51.114;6.542;2023-03-14T16:10:50;10.40;54.50
1405;DHT22;697;51.114;6.542;2023-03-14T16:13:18;10.40;52.90
1405;DHT22;697;51.114;6.542;2023-03-14T16:15:54;10.30;53.90
1405;DHT22;697;51.114;6.542;2023-03-14T16:18:21;10.30;53.70
1405;DHT22;697;51.114;6.542;2023-03-14T16:20:53;10.20;53.50
1405;DHT22;697;51.114;6.542;2023-03-14T16:23:20;10.20;54.90
1405;DHT22;697;51.114;6.542;2023-03-14T16:25:47;10.30;57.40
1405;DHT22;697;51.114;6.542;2023-03-14T16:28:14;10.30;56.60
1405;DHT22;697;51.114;6.542;2023-03-14T16:30:41;10.30;57.10
1405;DHT22;697;51.114;6.542;2023-03-14T16:33:09;10.30;56.00
1405;DHT22;697;51.114;6.542;2023-03-14T16:35:36;10.20;54.90
1405;DHT22;697;51.114;6.542;2023-03-14T16:38:03;10.10;55.60